sensor_id;sensor_type;location;lat;lon;timestamp;pressure;altitude;pressure_sealevel;temperature;humidity
3206;BME280;1615;53.602;11.418;2024-02-28T00:02:19;101578.66;;;6.80;100.00
3206;BME280;1615;53.602;11.418;2024-02-28T00:04:45;101555.94;;;6.74;100.00
3206;BME280;1615;53.602;11.418;2024-02-28T00:07:10;101541.09;;;6.65;100.00
3206;BME280;1615;53.602;11.418;2024-02-28T00:09:35;101559.94;;;6.67;100.00
3206;BME280;1615;53.602;11.418;2024-02-28T00:12:00;101578.81;;;6.73;100.00
3206;BME280;1615;53.602;11.418;2024-02-28T00:14:26;101569.16;;;6.66;100.00
3206;BME280;1615;53.602;11.418;2024-02-28T00:16:51;101561.97;;;6.60;100.00
3206;BME280;1615;53.602;11.418;2024-02-28T00:19:16;101531.19;;;6.43;100.00
3206;BME280;1615;53.602;11.418;2024-02-28T00:21:43;101578.34;;;6.76;100.00
3206;BME280;1615;53.602;11.418;2024-02-28T00:24:09;101586.19;;;6.73;100.00
3206;BME280;1615;53.602;11.418;2024-02-28T00:26:35;101587.50;;;6.70;100.00
3206;BME280;1615;53.602;11.418;2024-02-28T00:29:01;101563.56;;;6.56;100.00
3206;BME280;1615;53.602;11.418;2024-02-28T00:31:26;101591.19;;;6.81;100.00
3206;BME280;1615;53.602;11.418;2024-02-28T00:33:51;101588.41;;;6.76;100.00
3206;BME280;1615;53.602;11.418;2024-02-28T00:36:16;101589.63;;;6.85;100.00
3206;BME280;1615;53.602;11.418;2024-02-28T00:38:42;101581.94;;;6.82;100.00
3206;BME280;1615;53.602;11.418;2024-02-28T00:41:08;101590.97;;;6.82;100.00
3206;BME280;1615;53.602;11.418;2024-02-28T00:43:33;101578.56;;;6.75;100.00
3206;BME280;1615;53.602;11.418;2024-02-28T00:45:58;101594.34;;;6.89;100.00
3206;BME280;1615;53.602;11.418;2024-02-28T00:48:24;101581.47;;;6.85;100.00
3206;BME280;1615;53.602;11.418;2024-02-28T00:50:50;101594.34;;;6.89;100.00
3206;BME280;1615;53.602;11.418;2024-02-28T00:53:15;101572.66;;;6.78;100.00
3206;BME280;1615;53.602;11.418;2024-02-28T00:55:43;101586.44;;;6.88;100.00
3206;BME280;1615;53.602;11.418;2024-02-28T00:58:08;101583.09;;;6.86;100.00
3206;BME280;1615;53.602;11.418;2024-02-28T01:00:33;101596.41;;;6.99;100.00
3206;BME280;1615;53.602;11.418;2024-02-28T01:03:00;101522.34;;;6.52;100.00
3206;BME280;1615;53.602;11.418;2024-02-28T01:05:28;101551.09;;;6.76;100.00
3206;BME280;1615;53.602;11.418;2024-02-28T01:07:54;101581.94;;;6.82;100.00
3206;BME280;1615;53.602;11.418;2024-02-28T01:10:19;101548.34;;;6.60;100.00
3206;BME280;1615;53.602;11.418;2024-02-28T01:12:44;101513.22;;;6.42;100.00
3206;BME280;1615;53.602;11.418;2024-02-28T01:15:09;101551.75;;;6.67;100.00
3206;BME280;1615;53.602;11.418;2024-02-28T01:17:35;101578.75;;;6.85;100.00
3206;BME280;1615;53.602;11.418;2024-02-28T01:20:00;101560.00;;;6.72;100.00
3206;BME280;1615;53.602;11.418;2024-02-28T01:22:25;101572.88;;;6.76;100.00
3206;BME280;1615;53.602;11.418;2024-02-28T01:24:51;101578.00;;;6.73;100.00
3206;BME280;1615;53.602;11.418;2024-02-28T01:27:16;101570.06;;;6.55;100.00
3206;BME280;1615;53.602;11.418;2024-02-28T01:29:41;101564.44;;;6.45;100.00
3206;BME280;1615;53.602;11.418;2024-02-28T01:32:06;101588.56;;;6.53;100.00
3206;BME280;1615;53.602;11.418;2024-02-28T01:34:32;101567.91;;;6.40;100.00
3206;BME280;1615;53.602;11.418;2024-02-28T01:36:57;101568.84;;;6.46;100.00
3206;BME280;1615;53.602;11.418;2024-02-28T01:39:22;101587.50;;;6.54;100.00
3206;BME280;1615;53.602;11.418;2024-02-28T01:41:54;101390.06;;;5.41;100.00
3206;BME280;1615;53.602;11.418;2024-02-28T01:44:21;101587.09;;;6.62;100.00
3206;BME280;1615;53.602;11.418;2024-02-28T01:46:47;101577.84;;;6.63;100.00
3206;BME280;1615;53.602;11.418;2024-02-28T01:49:12;101550.25;;;6.43;100.00
3206;BME280;1615;53.602;11.418;2024-02-28T01:51:38;101584.28;;;6.57;100.00
3206;BME280;1615;53.602;11.418;2024-02-28T01:54:04;101570.22;;;6.32;100.00
3206;BME280;1615;53.602;11.418;2024-02-28T01:56:30;101567.09;;;6.40;100.00
3206;BME280;1615;53.602;11.418;2024-02-28T01:58:56;101595.66;;;6.54;100.00
3206;BME280;1615;53.602;11.418;2024-02-28T02:01:22;101586.59;;;6.48;100.00
3206;BME280;1615;53.602;11.418;2024-02-28T02:03:47;101577.66;;;6.53;100.00
3206;BME280;1615;53.602;11.418;2024-02-28T02:06:13;101561.81;;;6.50;100.00
3206;BME280;1615;53.602;11.418;2024-02-28T02:08:39;101567.66;;;6.58;100.00
3206;BME280;1615;53.602;11.418;2024-02-28T02:11:05;101541.53;;;6.41;100.00
3206;BME280;1615;53.602;11.418;2024-02-28T02:13:31;101543.34;;;6.52;100.00
3206;BME280;1615;53.602;11.418;2024-02-28T02:15:56;101549.78;;;6.46;100.00
3206;BME280;1615;53.602;11.418;2024-02-28T02:18:22;101535.09;;;6.47;100.00
3206;BME280;1615;53.602;11.418;2024-02-28T02:20:50;101558.69;;;6.58;100.00
3206;BME280;1615;53.602;11.418;2024-02-28T02:23:17;101549.94;;;6.39;100.00
3206;BME280;1615;53.602;11.418;2024-02-28T02:25:46;101563.41;;;6.46;100.00
3206;BME280;1615;53.602;11.418;2024-02-28T02:28:11;101560.06;;;6.44;100.00
3206;BME280;1615;53.602;11.418;2024-02-28T02:30:37;101542.84;;;6.38;100.00
3206;BME280;1615;53.602;11.418;2024-02-28T02:33:03;101530.22;;;6.32;100.00
3206;BME280;1615;53.602;11.418;2024-02-28T02:35:29;101542.00;;;6.38;100.00
3206;BME280;1615;53.602;11.418;2024-02-28T02:37:54;101556.88;;;6.47;100.00
3206;BME280;1615;53.602;11.418;2024-02-28T02:40:20;101551.44;;;6.47;100.00
3206;BME280;1615;53.602;11.418;2024-02-28T02:42:45;101540.69;;;6.40;100.00
3206;BME280;1615;53.602;11.418;2024-02-28T02:45:10;101544.97;;;6.36;100.00
3206;BME280;1615;53.602;11.418;2024-02-28T02:47:35;101561.16;;;6.43;100.00
3206;BME280;1615;53.602;11.418;2024-02-28T02:50:02;101531.25;;;6.15;100.00
3206;BME280;1615;53.602;11.418;2024-02-28T02:52:27;101521.38;;;6.09;100.00
3206;BME280;1615;53.602;11.418;2024-02-28T02:54:52;101549.25;;;6.16;100.00
3206;BME280;1615;53.602;11.418;2024-02-28T02:57:18;101543.31;;;6.19;100.00
3206;BME280;1615;53.602;11.418;2024-02-28T02:59:43;101550.91;;;6.33;100.00
3206;BME280;1615;53.602;11.418;2024-02-28T03:02:08;101611.72;;;6.39;100.00
3206;BME280;1615;53.602;11.418;2024-02-28T03:04:34;101534.06;;;6.20;100.00
3206;BME280;1615;53.602;11.418;2024-02-28T03:06:59;101507.66;;;6.04;100.00
3206;BME280;1615;53.602;11.418;2024-02-28T03:09:24;101548.09;;;6.28;100.00
3206;BME280;1615;53.602;11.418;2024-02-28T03:11:49;101546.13;;;6.24;100.00
3206;BME280;1615;53.602;11.418;2024-02-28T03:14:15;101574.19;;;6.41;100.00
3206;BME280;1615;53.602;11.418;2024-02-28T03:16:42;101202.97;;;4.16;100.00
3206;BME280;1615;53.602;11.418;2024-02-28T03:19:07;101574.91;;;6.36;100.00
3206;BME280;1615;53.602;11.418;2024-02-28T03:21:32;101540.97;;;6.11;100.00
3206;BME280;1615;53.602;11.418;2024-02-28T03:23:58;101531.59;;;6.18;100.00
3206;BME280;1615;53.602;11.418;2024-02-28T03:26:23;101524.00;;;6.04;100.00
3206;BME280;1615;53.602;11.418;2024-02-28T03:28:48;101558.34;;;5.93;100.00
3206;BME280;1615;53.602;11.418;2024-02-28T03:31:13;101562.38;;;5.91;100.00
3206;BME280;1615;53.602;11.418;2024-02-28T03:33:39;101568.47;;;5.81;100.00
3206;BME280;1615;53.602;11.418;2024-02-28T03:36:04;101557.00;;;5.68;100.00
3206;BME280;1615;53.602;11.418;2024-02-28T03:38:30;101572.84;;;5.71;100.00
3206;BME280;1615;53.602;11.418;2024-02-28T03:40:55;101570.94;;;5.83;100.00
3206;BME280;1615;53.602;11.418;2024-02-28T03:43:21;101566.22;;;5.67;100.00
3206;BME280;1615;53.602;11.418;2024-02-28T03:45:46;101586.56;;;5.76;100.00
3206;BME280;1615;53.602;11.418;2024-02-28T03:48:11;101582.63;;;5.83;100.00
3206;BME280;1615;53.602;11.418;2024-02-28T03:50:36;101590.28;;;5.98;100.00
3206;BME280;1615;53.602;11.418;2024-02-28T03:53:03;101515.22;;;5.46;100.00
3206;BME280;1615;53.602;11.418;2024-02-28T03:55:28;101604.56;;;6.05;100.00
3206;BME280;1615;53.602;11.418;2024-02-28T03:57:53;101610.47;;;6.02;100.00
3206;BME280;1615;53.602;11.418;2024-02-28T04:00:19;101586.19;;;5.84;100.00
3206;BME280;1615;53.602;11.418;2024-02-28T04:02:44;101600.66;;;6.01;100.00
3206;BME280;1615;53.602;11.418;2024-02-28T04:05:09;101583.66;;;5.94;100.00
3206;BME280;1615;53.602;11.418;2024-02-28T04:07:35;101615.66;;;6.15;100.00
3206;BME280;1615;53.602;11.418;2024-02-28T04:10:00;101665.13;;;6.12;100.00
3206;BME280;1615;53.602;11.418;2024-02-28T04:12:25;101611.56;;;6.01;100.00
3206;BME280;1615;53.602;11.418;2024-02-28T04:14:50;101622.78;;;6.04;100.00
3206;BME280;1615;53.602;11.418;2024-02-28T04:17:16;101600.13;;;5.87;100.00
3206;BME280;1615;53.602;11.418;2024-02-28T04:19:41;101618.28;;;6.10;100.00
3206;BME280;1615;53.602;11.418;2024-02-28T04:22:06;101310.03;;;4.25;100.00
3206;BME280;1615;53.602;11.418;2024-02-28T04:24:31;101619.09;;;6.10;100.00
3206;BME280;1615;53.602;11.418;2024-02-28T04:26:57;101600.47;;;5.91;100.00
3206;BME280;1615;53.602;11.418;2024-02-28T04:29:25;101564.59;;;5.66;100.00
3206;BME280;1615;53.602;11.418;2024-02-28T04:31:50;101591.50;;;5.79;100.00
3206;BME280;1615;53.602;11.418;2024-02-28T04:34:15;101641.72;;;5.99;100.00
3206;BME280;1615;53.602;11.418;2024-02-28T04:36:40;101603.91;;;5.75;100.00
3206;BME280;1615;53.602;11.418;2024-02-28T04:39:06;101587.25;;;5.71;100.00
3206;BME280;1615;53.602;11.418;2024-02-28T04:41:33;101634.50;;;6.05;100.00
3206;BME280;1615;53.602;11.418;2024-02-28T04:43:59;101612.63;;;6.00;100.00
3206;BME280;1615;53.602;11.418;2024-02-28T04:46:24;101631.38;;;6.13;100.00
3206;BME280;1615;53.602;11.418;2024-02-28T04:48:49;101626.53;;;6.15;100.00
3206;BME280;1615;53.602;11.418;2024-02-28T04:51:16;101609.78;;;6.06;100.00
3206;BME280;1615;53.602;11.418;2024-02-28T04:53:42;101633.53;;;6.11;100.00
3206;BME280;1615;53.602;11.418;2024-02-28T04:56:08;101619.16;;;5.99;100.00
3206;BME280;1615;53.602;11.418;2024-02-28T04:58:33;101629.16;;;6.10;100.00
3206;BME280;1615;53.602;11.418;2024-02-28T05:00:58;101636.81;;;6.13;100.00
3206;BME280;1615;53.602;11.418;2024-02-28T05:03:24;101616.72;;;6.14;100.00
3206;BME280;1615;53.602;11.418;2024-02-28T05:05:50;101245.94;;;3.96;100.00
3206;BME280;1615;53.602;11.418;2024-02-28T05:08:15;101607.38;;;6.10;100.00
3206;BME280;1615;53.602;11.418;2024-02-28T05:10:41;101633.06;;;6.14;100.00
3206;BME280;1615;53.602;11.418;2024-02-28T05:13:06;101627.31;;;5.99;100.00
3206;BME280;1615;53.602;11.418;2024-02-28T05:15:31;101630.16;;;5.92;100.00
3206;BME280;1615;53.602;11.418;2024-02-28T05:17:57;101599.31;;;5.75;100.00
3206;BME280;1615;53.602;11.418;2024-02-28T05:20:22;101609.84;;;5.83;100.00
3206;BME280;1615;53.602;11.418;2024-02-28T05:22:47;101604.41;;;5.72;100.00
3206;BME280;1615;53.602;11.418;2024-02-28T05:25:13;101617.06;;;5.78;100.00
3206;BME280;1615;53.602;11.418;2024-02-28T05:27:38;101575.16;;;5.51;100.00
3206;BME280;1615;53.602;11.418;2024-02-28T05:30:03;101614.00;;;5.63;100.00
3206;BME280;1615;53.602;11.418;2024-02-28T05:32:32;101621.09;;;5.64;100.00
3206;BME280;1615;53.602;11.418;2024-02-28T05:34:57;101603.63;;;5.60;100.00
3206;BME280;1615;53.602;11.418;2024-02-28T05:37:22;101632.19;;;5.74;100.00
3206;BME280;1615;53.602;11.418;2024-02-28T05:39:48;101613.78;;;5.64;100.00
3206;BME280;1615;53.602;11.418;2024-02-28T05:42:13;101605.28;;;5.61;100.00
3206;BME280;1615;53.602;11.418;2024-02-28T05:44:39;101629.38;;;5.69;100.00
3206;BME280;1615;53.602;11.418;2024-02-28T05:47:04;101633.06;;;5.63;100.00
3206;BME280;1615;53.602;11.418;2024-02-28T05:49:29;101641.22;;;5.63;100.00
3206;BME280;1615;53.602;11.418;2024-02-28T05:51:55;101653.16;;;5.73;100.00
3206;BME280;1615;53.602;11.418;2024-02-28T05:54:21;101600.81;;;5.55;100.00
3206;BME280;1615;53.602;11.418;2024-02-28T05:56:46;101646.03;;;5.72;100.00
3206;BME280;1615;53.602;11.418;2024-02-28T05:59:11;101649.13;;;5.64;100.00
3206;BME280;1615;53.602;11.418;2024-02-28T06:01:37;101606.97;;;5.39;100.00
3206;BME280;1615;53.602;11.418;2024-02-28T06:04:05;101601.88;;;5.42;100.00
3206;BME280;1615;53.602;11.418;2024-02-28T06:06:30;101641.72;;;5.60;100.00
3206;BME280;1615;53.602;11.418;2024-02-28T06:08:55;101641.78;;;5.65;100.00
3206;BME280;1615;53.602;11.418;2024-02-28T06:11:21;101627.50;;;5.58;100.00
3206;BME280;1615;53.602;11.418;2024-02-28T06:13:46;101663.66;;;5.70;100.00
3206;BME280;1615;53.602;11.418;2024-02-28T06:16:15;101655.75;;;5.68;100.00
3206;BME280;1615;53.602;11.418;2024-02-28T06:18:41;101673.59;;;5.76;100.00
3206;BME280;1615;53.602;11.418;2024-02-28T06:21:06;101647.16;;;5.60;100.00
3206;BME280;1615;53.602;11.418;2024-02-28T06:23:31;101617.25;;;5.37;100.00
3206;BME280;1615;53.602;11.418;2024-02-28T06:25:57;101668.06;;;5.71;100.00
3206;BME280;1615;53.602;11.418;2024-02-28T06:28:22;101757.34;;;5.74;100.00
3206;BME280;1615;53.602;11.418;2024-02-28T06:30:47;101661.31;;;5.62;100.00
3206;BME280;1615;53.602;11.418;2024-02-28T06:33:13;101650.81;;;5.42;100.00
3206;BME280;1615;53.602;11.418;2024-02-28T06:35:39;101677.41;;;5.52;100.00
3206;BME280;1615;53.602;11.418;2024-02-28T06:38:04;101658.25;;;5.47;100.00
3206;BME280;1615;53.602;11.418;2024-02-28T06:40:30;101640.06;;;5.36;100.00
3206;BME280;1615;53.602;11.418;2024-02-28T06:42:55;101654.47;;;5.48;100.00
3206;BME280;1615;53.602;11.418;2024-02-28T06:45:20;101669.38;;;5.57;100.00
3206;BME280;1615;53.602;11.418;2024-02-28T06:47:46;101694.44;;;5.59;100.00
3206;BME280;1615;53.602;11.418;2024-02-28T06:50:12;101691.25;;;5.62;100.00
3206;BME280;1615;53.602;11.418;2024-02-28T06:52:37;101686.25;;;5.59;100.00
3206;BME280;1615;53.602;11.418;2024-02-28T06:55:02;101692.31;;;5.61;100.00
3206;BME280;1615;53.602;11.418;2024-02-28T06:57:40;101695.25;;;5.59;100.00
3206;BME280;1615;53.602;11.418;2024-02-28T07:00:08;101696.09;;;5.60;100.00
3206;BME280;1615;53.602;11.418;2024-02-28T07:02:37;101642.91;;;5.29;100.00
3206;BME280;1615;53.602;11.418;2024-02-28T07:05:03;101681.66;;;5.48;100.00
3206;BME280;1615;53.602;11.418;2024-02-28T07:07:30;101604.41;;;4.98;100.00
3206;BME280;1615;53.602;11.418;2024-02-28T07:09:56;101668.91;;;5.37;100.00
3206;BME280;1615;53.602;11.418;2024-02-28T07:12:21;101703.66;;;5.58;100.00
3206;BME280;1615;53.602;11.418;2024-02-28T07:14:46;101676.47;;;5.35;100.00
3206;BME280;1615;53.602;11.418;2024-02-28T07:17:12;101702.47;;;5.54;100.00
3206;BME280;1615;53.602;11.418;2024-02-28T07:19:37;101680.97;;;5.41;100.00
3206;BME280;1615;53.602;11.418;2024-02-28T07:22:03;101706.50;;;5.63;100.00
3206;BME280;1615;53.602;11.418;2024-02-28T07:24:30;101699.88;;;5.59;100.00
3206;BME280;1615;53.602;11.418;2024-02-28T07:26:56;101681.66;;;5.59;100.00
3206;BME280;1615;53.602;11.418;2024-02-28T07:29:22;101715.25;;;5.88;100.00
3206;BME280;1615;53.602;11.418;2024-02-28T07:31:49;101714.28;;;5.94;100.00
3206;BME280;1615;53.602;11.418;2024-02-28T07:34:14;101700.56;;;5.89;100.00
3206;BME280;1615;53.602;11.418;2024-02-28T07:36:39;101710.38;;;6.01;100.00
3206;BME280;1615;53.602;11.418;2024-02-28T07:39:04;101712.69;;;6.09;100.00
3206;BME280;1615;53.602;11.418;2024-02-28T07:41:30;101711.25;;;6.18;100.00
3206;BME280;1615;53.602;11.418;2024-02-28T07:43:55;101670.97;;;6.04;100.00
3206;BME280;1615;53.602;11.418;2024-02-28T07:46:21;101705.63;;;6.36;100.00
3206;BME280;1615;53.602;11.418;2024-02-28T07:48:46;101691.78;;;6.38;100.00
3206;BME280;1615;53.602;11.418;2024-02-28T07:51:11;101702.88;;;6.48;100.00
3206;BME280;1615;53.602;11.418;2024-02-28T07:53:37;101684.78;;;6.42;100.00
3206;BME280;1615;53.602;11.418;2024-02-28T07:56:02;101703.44;;;6.50;100.00
3206;BME280;1615;53.602;11.418;2024-02-28T07:58:28;101711.13;;;6.53;100.00
3206;BME280;1615;53.602;11.418;2024-02-28T08:00:53;101665.53;;;6.32;100.00
3206;BME280;1615;53.602;11.418;2024-02-28T08:03:19;101659.63;;;6.23;100.00
3206;BME280;1615;53.602;11.418;2024-02-28T08:05:44;101669.53;;;6.41;100.00
3206;BME280;1615;53.602;11.418;2024-02-28T08:08:10;101710.44;;;6.74;100.00
3206;BME280;1615;53.602;11.418;2024-02-28T08:10:37;101713.16;;;6.74;100.00
3206;BME280;1615;53.602;11.418;2024-02-28T08:13:03;101712.00;;;6.70;100.00
3206;BME280;1615;53.602;11.418;2024-02-28T08:15:28;101719.69;;;6.73;100.00
3206;BME280;1615;53.602;11.418;2024-02-28T08:17:53;101603.63;;;5.99;100.00
3206;BME280;1615;53.602;11.418;2024-02-28T08:20:19;101637.03;;;6.23;100.00
3206;BME280;1615;53.602;11.418;2024-02-28T08:22:45;101712.44;;;6.78;100.00
3206;BME280;1615;53.602;11.418;2024-02-28T08:25:11;101712.03;;;6.86;100.00
3206;BME280;1615;53.602;11.418;2024-02-28T08:27:37;101678.31;;;6.76;100.00
3206;BME280;1615;53.602;11.418;2024-02-28T08:30:04;101705.50;;;6.87;100.00
3206;BME280;1615;53.602;11.418;2024-02-28T08:32:31;101695.94;;;6.85;100.00
3206;BME280;1615;53.602;11.418;2024-02-28T08:34:56;101697.34;;;6.87;100.00
3206;BME280;1615;53.602;11.418;2024-02-28T08:37:23;101716.44;;;7.04;100.00
3206;BME280;1615;53.602;11.418;2024-02-28T08:39:48;101701.88;;;6.98;100.00
3206;BME280;1615;53.602;11.418;2024-02-28T08:42:13;101704.13;;;7.01;100.00
3206;BME280;1615;53.602;11.418;2024-02-28T08:44:39;101686.50;;;7.09;100.00
3206;BME280;1615;53.602;11.418;2024-02-28T08:47:05;101684.38;;;7.11;100.00
3206;BME280;1615;53.602;11.418;2024-02-28T08:49:33;101698.09;;;7.16;100.00
3206;BME280;1615;53.602;11.418;2024-02-28T08:51:58;101694.28;;;7.17;100.00
3206;BME280;1615;53.602;11.418;2024-02-28T08:54:23;101692.13;;;7.19;100.00
3206;BME280;1615;53.602;11.418;2024-02-28T08:56:49;101684.53;;;7.21;100.00
3206;BME280;1615;53.602;11.418;2024-02-28T08:59:14;101702.19;;;7.35;100.00
3206;BME280;1615;53.602;11.418;2024-02-28T09:01:39;101631.84;;;6.99;100.00
3206;BME280;1615;53.602;11.418;2024-02-28T09:04:06;101694.78;;;7.30;99.18
3206;BME280;1615;53.602;11.418;2024-02-28T09:06:31;101694.13;;;7.23;98.39
3206;BME280;1615;53.602;11.418;2024-02-28T09:08:57;101683.31;;;7.28;99.44
3206;BME280;1615;53.602;11.418;2024-02-28T09:11:22;101484.56;;;6.23;99.72
3206;BME280;1615;53.602;11.418;2024-02-28T09:13:47;101690.91;;;7.64;97.34
3206;BME280;1615;53.602;11.418;2024-02-28T09:16:13;101727.66;;;7.95;96.93
3206;BME280;1615;53.602;11.418;2024-02-28T09:18:38;101681.63;;;7.82;94.38
3206;BME280;1615;53.602;11.418;2024-02-28T09:21:03;101704.34;;;8.09;93.11
3206;BME280;1615;53.602;11.418;2024-02-28T09:23:29;101708.78;;;8.15;90.47
3206;BME280;1615;53.602;11.418;2024-02-28T09:25:55;101698.13;;;7.92;89.84
3206;BME280;1615;53.602;11.418;2024-02-28T09:28:21;101719.34;;;7.85;87.98
3206;BME280;1615;53.602;11.418;2024-02-28T09:30:46;101726.94;;;7.83;89.46
3206;BME280;1615;53.602;11.418;2024-02-28T09:33:12;101720.53;;;7.94;91.23
3206;BME280;1615;53.602;11.418;2024-02-28T09:35:38;101705.09;;;7.83;90.24
3206;BME280;1615;53.602;11.418;2024-02-28T09:38:03;101676.00;;;7.72;90.90
3206;BME280;1615;53.602;11.418;2024-02-28T09:40:30;101710.53;;;7.99;90.53
3206;BME280;1615;53.602;11.418;2024-02-28T09:43:03;101675.75;;;7.73;91.30
3206;BME280;1615;53.602;11.418;2024-02-28T09:45:29;101738.53;;;7.90;91.25
3206;BME280;1615;53.602;11.418;2024-02-28T09:47:59;101714.81;;;7.74;90.57
3206;BME280;1615;53.602;11.418;2024-02-28T09:50:26;101715.88;;;7.73;91.27
3206;BME280;1615;53.602;11.418;2024-02-28T09:52:51;101704.16;;;7.72;91.94
3206;BME280;1615;53.602;11.418;2024-02-28T09:55:17;101729.31;;;7.96;92.38
3206;BME280;1615;53.602;11.418;2024-02-28T09:57:42;101745.19;;;7.99;91.39
3206;BME280;1615;53.602;11.418;2024-02-28T10:00:09;101674.34;;;7.87;92.66
3206;BME280;1615;53.602;11.418;2024-02-28T10:02:36;101695.41;;;8.13;92.24
3206;BME280;1615;53.602;11.418;2024-02-28T10:05:02;101728.25;;;8.40;89.09
3206;BME280;1615;53.602;11.418;2024-02-28T10:07:30;101684.50;;;8.35;88.41
3206;BME280;1615;53.602;11.418;2024-02-28T10:09:56;101726.84;;;8.59;87.55
3206;BME280;1615;53.602;11.418;2024-02-28T10:12:21;101734.84;;;8.65;87.41
3206;BME280;1615;53.602;11.418;2024-02-28T10:14:49;101739.44;;;8.86;87.22
3206;BME280;1615;53.602;11.418;2024-02-28T10:17:15;101734.97;;;9.02;85.71
3206;BME280;1615;53.602;11.418;2024-02-28T10:19:40;101738.25;;;9.04;83.53
3206;BME280;1615;53.602;11.418;2024-02-28T10:22:06;101734.56;;;9.20;83.11
3206;BME280;1615;53.602;11.418;2024-02-28T10:24:33;101714.16;;;9.32;83.01
3206;BME280;1615;53.602;11.418;2024-02-28T10:27:01;101733.25;;;9.64;82.14
3206;BME280;1615;53.602;11.418;2024-02-28T10:29:26;101684.03;;;9.32;78.71
3206;BME280;1615;53.602;11.418;2024-02-28T10:31:56;101654.41;;;8.88;78.94
3206;BME280;1615;53.602;11.418;2024-02-28T10:34:21;101705.84;;;9.22;80.68
3206;BME280;1615;53.602;11.418;2024-02-28T10:36:47;101718.44;;;9.55;81.57
3206;BME280;1615;53.602;11.418;2024-02-28T10:39:13;101704.97;;;9.48;82.29
3206;BME280;1615;53.602;11.418;2024-02-28T10:41:39;101734.81;;;9.50;79.76
3206;BME280;1615;53.602;11.418;2024-02-28T10:44:05;101749.97;;;9.31;79.56
3206;BME280;1615;53.602;11.418;2024-02-28T10:46:31;101765.38;;;9.42;81.30
3206;BME280;1615;53.602;11.418;2024-02-28T10:48:56;101726.53;;;9.40;82.20
3206;BME280;1615;53.602;11.418;2024-02-28T10:51:26;101759.63;;;9.38;81.07
3206;BME280;1615;53.602;11.418;2024-02-28T10:54:08;101754.75;;;9.45;80.13
3206;BME280;1615;53.602;11.418;2024-02-28T10:56:40;101761.34;;;9.49;79.73
3206;BME280;1615;53.602;11.418;2024-02-28T10:59:07;101752.84;;;9.46;80.45
3206;BME280;1615;53.602;11.418;2024-02-28T11:01:35;101767.66;;;9.50;81.00
3206;BME280;1615;53.602;11.418;2024-02-28T11:04:01;101766.53;;;9.46;82.10
3206;BME280;1615;53.602;11.418;2024-02-28T11:06:27;101768.34;;;9.67;83.17
3206;BME280;1615;53.602;11.418;2024-02-28T11:08:53;101738.03;;;9.42;81.49
3206;BME280;1615;53.602;11.418;2024-02-28T11:11:19;101745.13;;;9.43;81.09
3206;BME280;1615;53.602;11.418;2024-02-28T11:13:55;101765.44;;;9.47;80.62
3206;BME280;1615;53.602;11.418;2024-02-28T11:16:27;101765.56;;;9.30;81.31
3206;BME280;1615;53.602;11.418;2024-02-28T11:18:53;101759.13;;;9.41;81.98
3206;BME280;1615;53.602;11.418;2024-02-28T11:21:18;101689.56;;;9.06;82.40
3206;BME280;1615;53.602;11.418;2024-02-28T11:23:47;101757.38;;;9.67;83.01
3206;BME280;1615;53.602;11.418;2024-02-28T11:26:15;101458.69;;;7.87;81.23
3206;BME280;1615;53.602;11.418;2024-02-28T11:28:41;101750.19;;;9.56;80.96
3206;BME280;1615;53.602;11.418;2024-02-28T11:31:06;101708.47;;;9.39;81.40
3206;BME280;1615;53.602;11.418;2024-02-28T11:33:31;101751.84;;;9.57;79.78
3206;BME280;1615;53.602;11.418;2024-02-28T11:35:59;101749.63;;;9.59;80.20
3206;BME280;1615;53.602;11.418;2024-02-28T11:38:25;101728.81;;;9.53;80.13
3206;BME280;1615;53.602;11.418;2024-02-28T11:40:51;101681.53;;;9.26;80.24
3206;BME280;1615;53.602;11.418;2024-02-28T11:43:17;101762.91;;;9.72;79.93
3206;BME280;1615;53.602;11.418;2024-02-28T11:45:43;101723.41;;;9.63;79.56
3206;BME280;1615;53.602;11.418;2024-02-28T11:48:09;101746.09;;;10.00;79.13
3206;BME280;1615;53.602;11.418;2024-02-28T11:50:34;101741.28;;;10.22;78.37
3206;BME280;1615;53.602;11.418;2024-02-28T11:52:59;101729.66;;;10.00;76.82
3206;BME280;1615;53.602;11.418;2024-02-28T11:55:27;101739.13;;;10.29;77.20
3206;BME280;1615;53.602;11.418;2024-02-28T11:57:52;101722.69;;;10.24;76.95
3206;BME280;1615;53.602;11.418;2024-02-28T12:00:18;101774.31;;;10.47;76.32
3206;BME280;1615;53.602;11.418;2024-02-28T12:02:43;101711.22;;;10.42;75.46
3206;BME280;1615;53.602;11.418;2024-02-28T12:05:08;101657.13;;;10.12;74.96
3206;BME280;1615;53.602;11.418;2024-02-28T12:07:34;101703.84;;;10.47;76.48
3206;BME280;1615;53.602;11.418;2024-02-28T12:10:00;101734.88;;;10.63;76.56
3206;BME280;1615;53.602;11.418;2024-02-28T12:12:29;101723.84;;;10.48;75.13
3206;BME280;1615;53.602;11.418;2024-02-28T12:15:01;101731.06;;;10.74;74.88
3206;BME280;1615;53.602;11.418;2024-02-28T12:17:30;101718.34;;;10.43;74.28
3206;BME280;1615;53.602;11.418;2024-02-28T12:19:56;101727.16;;;10.55;75.17
3206;BME280;1615;53.602;11.418;2024-02-28T12:22:21;101724.50;;;10.80;75.04
3206;BME280;1615;53.602;11.418;2024-02-28T12:24:47;101722.06;;;11.08;74.75
3206;BME280;1615;53.602;11.418;2024-02-28T12:27:12;101697.66;;;11.12;74.55
3206;BME280;1615;53.602;11.418;2024-02-28T12:29:38;101599.94;;;10.66;72.60
3206;BME280;1615;53.602;11.418;2024-02-28T12:32:03;101700.13;;;11.08;71.81
3206;BME280;1615;53.602;11.418;2024-02-28T12:34:29;101681.19;;;11.37;71.38
3206;BME280;1615;53.602;11.418;2024-02-28T12:36:54;101705.88;;;11.32;70.04
3206;BME280;1615;53.602;11.418;2024-02-28T12:39:19;101683.09;;;11.21;69.96
3206;BME280;1615;53.602;11.418;2024-02-28T12:41:45;101680.63;;;11.30;71.11
3206;BME280;1615;53.602;11.418;2024-02-28T12:44:10;101705.31;;;11.30;71.24
3206;BME280;1615;53.602;11.418;2024-02-28T12:46:36;101697.66;;;11.27;72.06
3206;BME280;1615;53.602;11.418;2024-02-28T12:49:02;101678.97;;;11.39;72.25
3206;BME280;1615;53.602;11.418;2024-02-28T12:51:41;101688.81;;;11.75;71.84
3206;BME280;1615;53.602;11.418;2024-02-28T12:54:08;101672.88;;;11.72;70.69
3206;BME280;1615;53.602;11.418;2024-02-28T12:56:37;101541.84;;;10.59;70.42